Time;durP1;ratioP1;P1;durP2;ratioP2;P2;SDS_P1;SDS_P2;PMS_P1;PMS_P2;Temp;Humidity;BMP_temperature;BMP_pressure;BME280_temperature;BME280_humidity;BME280_pressure;Samples;Min_cycle;Max_cycle;Signal;HPM_P1;HPM_P2
2024/03/03 00:00:06;;;;;;;2.10;1.15;;;;;;;11.68;66.92;99433.44;4479144;31;34049;-83
2024/03/03 00:02:34;;;;;;;1.42;1.33;;;;;;;11.74;66.92;99433.12;4491878;31;34058;-83
2024/03/03 00:05:02;;;;;;;1.90;1.80;;;;;;;11.89;66.42;99434.97;4478823;31;33624;-83
2024/03/03 00:07:31;;;;;;;5.25;1.77;;;;;;;11.87;66.55;99420.97;4479151;31;34404;-83
2024/03/03 00:09:59;;;;;;;1.58;1.48;;;;;;;11.83;66.57;99422.09;4480265;31;34606;-83
2024/03/03 00:12:27;;;;;;;1.83;1.73;;;;;;;11.98;65.80;99421.22;4466206;31;32699;-83
2024/03/03 00:14:54;;;;;;;3.80;2.83;;;;;;;11.73;66.53;99426.12;4492610;31;33820;-83
2024/03/03 00:17:22;;;;;;;0.82;0.82;;;;;;;11.90;66.32;99426.09;4476734;31;34586;-83
2024/03/03 00:19:50;;;;;;;2.60;1.08;;;;;;;11.68;66.99;99428.16;4480061;31;33486;-83
2024/03/03 00:22:18;;;;;;;1.00;1.00;;;;;;;11.76;65.70;99431.25;4494048;31;33294;-84
2024/03/03 00:24:46;;;;;;;3.72;2.25;;;;;;;11.71;66.77;99430.63;4478368;31;33888;-82
2024/03/03 00:27:15;;;;;;;1.52;1.42;;;;;;;11.69;66.15;99424.59;4464062;31;33547;-83
2024/03/03 00:29:42;;;;;;;2.10;1.90;;;;;;;11.61;66.32;99421.50;4480366;31;33867;-82
2024/03/03 00:32:10;;;;;;;2.50;1.95;;;;;;;11.51;66.83;99422.00;4461447;31;33921;-82
2024/03/03 00:34:38;;;;;;;3.08;1.48;;;;;;;11.98;64.99;99420.38;4465310;31;32727;-82
2024/03/03 00:37:06;;;;;;;3.55;1.35;;;;;;;11.72;65.84;99412.03;4464672;31;34438;-82
2024/03/03 00:39:37;;;;;;;0.57;0.57;;;;;;;11.66;66.14;99415.03;4491851;31;34480;-82
2024/03/03 00:42:05;;;;;;;0.32;0.32;;;;;;;11.50;66.33;99409.72;4466568;31;32581;-84
2024/03/03 00:44:34;;;;;;;0.55;0.55;;;;;;;11.57;66.28;99407.59;4492528;31;33602;-83
2024/03/03 00:47:02;;;;;;;3.00;1.40;;;;;;;11.51;65.82;99405.28;4478662;31;33131;-83
2024/03/03 00:49:29;;;;;;;1.30;1.20;;;;;;;11.45;66.40;99406.47;4465561;31;32776;-83
2024/03/03 00:51:58;;;;;;;0.50;0.50;;;;;;;11.49;66.14;99407.16;4479589;31;32658;-83
2024/03/03 00:54:26;;;;;;;7.55;1.17;;;;;;;11.63;65.60;99403.75;4479236;31;33783;-83
2024/03/03 00:56:54;;;;;;;5.93;2.30;;;;;;;11.60;65.57;99398.66;4475086;31;34316;-83
2024/03/03 00:59:24;;;;;;;0.73;0.73;;;;;;;11.54;65.46;99405.97;4489039;31;34283;-83
2024/03/03 01:01:52;;;;;;;1.45;1.35;;;;;;;11.55;64.97;99401.53;4476401;31;30920;-83
2024/03/03 01:04:20;;;;;;;4.93;1.85;;;;;;;11.44;65.24;99399.47;4479857;31;32520;-82
2024/03/03 01:06:48;;;;;;;0.82;0.82;;;;;;;11.42;65.38;99400.47;4491327;31;33896;-83
2024/03/03 01:09:17;;;;;;;2.55;2.17;;;;;;;11.47;65.21;99399.28;4479974;31;33817;-83
2024/03/03 01:11:53;;;;;;;2.05;0.93;;;;;;;11.40;65.41;99402.38;4491489;31;33244;-83
2024/03/03 01:14:22;;;;;;;1.27;1.27;;;;;;;11.47;65.34;99393.16;4481275;31;33546;-83
2024/03/03 01:16:50;;;;;;;1.98;1.83;;;;;;;11.43;65.56;99392.47;4477042;31;33968;-83
2024/03/03 01:19:18;;;;;;;2.03;0.95;;;;;;;11.43;65.25;99397.75;4479467;31;32875;-83
2024/03/03 01:21:46;;;;;;;4.75;1.45;;;;;;;11.30;65.94;99388.78;4479535;31;31643;-83
2024/03/03 01:24:13;;;;;;;2.05;1.65;;;;;;;11.30;65.75;99391.44;4478456;31;32805;-83
2024/03/03 01:26:41;;;;;;;2.35;1.35;;;;;;;11.25;65.95;99388.16;4464964;31;34225;-83
2024/03/03 01:29:09;;;;;;;0.20;0.20;;;;;;;11.32;65.65;99386.06;4491125;31;33807;-83
2024/03/03 01:31:37;;;;;;;2.35;2.17;;;;;;;11.26;65.96;99379.31;4475555;31;33714;-83
2024/03/03 01:34:04;;;;;;;0.95;0.90;;;;;;;11.38;65.60;99373.34;4476807;31;33479;-83
2024/03/03 01:36:33;;;;;;;1.00;0.90;;;;;;;11.28;66.22;99372.12;4475725;31;32990;-83
2024/03/03 01:39:01;;;;;;;10.65;1.55;;;;;;;11.44;65.63;99372.16;4488865;31;34016;-82
2024/03/03 01:41:29;;;;;;;3.40;1.48;;;;;;;11.33;66.52;99379.81;4479410;31;31887;-82
2024/03/03 01:43:58;;;;;;;0.62;0.57;;;;;;;11.35;66.49;99368.25;4488647;31;33804;-83
2024/03/03 01:46:26;;;;;;;3.35;1.62;;;;;;;11.49;66.08;99371.00;4492311;31;33921;-83
2024/03/03 01:48:55;;;;;;;3.03;2.62;;;;;;;11.52;66.17;99367.31;4491376;31;34625;-83
2024/03/03 01:51:23;;;;;;;1.15;1.10;;;;;;;11.40;66.38;99365.34;4480040;31;33031;-82
2024/03/03 01:53:52;;;;;;;0.25;0.25;;;;;;;11.61;66.54;99363.31;4466322;31;33158;-82
2024/03/03 01:56:25;;;;;;;6.20;1.87;;;;;;;11.58;66.47;99368.78;4477059;31;34781;-83
2024/03/03 01:58:53;;;;;;;2.53;1.75;;;;;;;11.58;66.51;99369.63;4476695;31;33589;-83
2024/03/03 02:01:23;;;;;;;0.47;0.47;;;;;;;11.61;66.02;99366.81;4474259;31;33614;-83
2024/03/03 02:03:51;;;;;;;1.92;1.80;;;;;;;11.46;66.82;99365.88;4489889;31;33798;-83
2024/03/03 02:06:20;;;;;;;0.65;0.52;;;;;;;11.54;66.43;99362.81;4477713;31;34623;-83
2024/03/03 02:08:48;;;;;;;1.27;1.15;;;;;;;11.44;67.79;99362.47;4463670;31;33356;-83
2024/03/03 02:11:16;;;;;;;6.12;2.37;;;;;;;11.61;66.54;99361.53;4477933;31;33113;-83
2024/03/03 02:13:44;;;;;;;1.75;1.37;;;;;;;11.44;67.01;99367.75;4476452;31;32113;-84
2024/03/03 02:16:11;;;;;;;2.75;1.95;;;;;;;11.44;67.01;99359.81;4477243;31;33108;-83
2024/03/03 02:18:39;;;;;;;2.22;1.85;;;;;;;11.66;66.42;99361.28;4476627;31;33486;-84
2024/03/03 02:21:07;;;;;;;1.92;1.00;;;;;;;11.69;65.87;99359.31;4476273;31;33369;-84
2024/03/03 02:23:35;;;;;;;3.00;1.42;;;;;;;11.66;65.96;99358.63;4477585;31;33967;-83
2024/03/03 02:26:03;;;;;;;1.33;1.27;;;;;;;11.66;66.02;99369.22;4479718;31;34509;-83
2024/03/03 02:28:31;;;;;;;1.77;1.65;;;;;;;11.58;66.23;99358.19;4466016;31;33052;-82
2024/03/03 02:30:59;;;;;;;2.30;1.62;;;;;;;11.61;65.69;99350.09;4494908;31;33900;-83
2024/03/03 02:33:27;;;;;;;3.90;1.75;;;;;;;11.61;66.19;99352.75;4479436;31;33881;-83
2024/03/03 02:35:54;;;;;;;2.37;1.45;;;;;;;11.74;65.31;99354.63;4481224;31;33603;-82
2024/03/03 02:38:22;;;;;;;1.33;0.98;;;;;;;11.63;66.21;99356.16;4465871;31;33436;-82
2024/03/03 02:40:50;;;;;;;1.80;1.20;;;;;;;11.83;64.54;99350.66;4480183;31;34024;-82
2024/03/03 02:43:18;;;;;;;3.83;1.45;;;;;;;11.84;64.27;99348.88;4472748;31;33938;-83
2024/03/03 02:45:46;;;;;;;0.68;0.68;;;;;;;11.71;65.22;99349.50;4490461;31;33685;-83
2024/03/03 02:48:14;;;;;;;4.60;2.22;;;;;;;11.87;64.69;99346.03;4462568;31;33091;-84
2024/03/03 02:50:41;;;;;;;5.50;2.17;;;;;;;11.60;64.83;99346.59;4478960;31;33502;-83
2024/03/03 02:53:09;;;;;;;1.73;1.30;;;;;;;11.51;65.17;99345.31;4489427;31;34239;-83
2024/03/03 02:55:37;;;;;;;1.15;0.93;;;;;;;11.58;65.45;99342.31;4462605;31;32508;-84
2024/03/03 02:58:05;;;;;;;1.58;1.48;;;;;;;11.40;66.07;99339.78;4464849;31;33301;-83
2024/03/03 03:00:34;;;;;;;1.60;1.48;;;;;;;11.79;64.80;99341.16;4480134;31;33634;-84
2024/03/03 03:03:02;;;;;;;1.40;1.30;;;;;;;11.61;65.08;99337.72;4478053;31;32685;-84
2024/03/03 03:05:32;;;;;;;1.48;1.37;;;;;;;11.65;64.74;99335.78;4480554;31;34300;-82
2024/03/03 03:08:00;;;;;;;1.58;1.02;;;;;;;11.54;65.14;99334.59;4475767;31;33076;-83
2024/03/03 03:10:28;;;;;;;0.60;0.60;;;;;;;11.38;65.98;99330.19;4476348;31;32992;-82
2024/03/03 03:12:56;;;;;;;2.10;1.65;;;;;;;11.21;65.93;99328.50;4475173;31;33726;-83
2024/03/03 03:15:24;;;;;;;0.70;0.35;;;;;;;11.11;66.36;99329.91;4477053;31;34055;-83
2024/03/03 03:17:52;;;;;;;1.95;1.73;;;;;;;11.22;66.32;99322.25;4479376;31;34318;-83
2024/03/03 03:20:20;;;;;;;0.98;0.98;;;;;;;11.20;66.80;99330.28;4494394;31;33316;-83
2024/03/03 03:22:48;;;;;;;0.50;0.50;;;;;;;11.11;67.10;99332.53;4479097;31;33150;-83
2024/03/03 03:25:16;;;;;;;0.25;0.25;;;;;;;10.95;67.38;99336.00;4479256;31;33219;-83
2024/03/03 03:27:44;;;;;;;1.52;0.75;;;;;;;11.14;66.44;99337.66;4482366;31;33783;-83
2024/03/03 03:30:12;;;;;;;1.27;1.17;;;;;;;10.93;67.57;99335.22;4478257;31;31632;-83
2024/03/03 03:32:41;;;;;;;0.82;0.82;;;;;;;11.22;66.05;99332.84;4480836;31;33757;-83
2024/03/03 03:35:10;;;;;;;1.90;1.62;;;;;;;11.29;65.69;99331.56;4492603;31;34062;-83
2024/03/03 03:37:37;;;;;;;1.65;1.55;;;;;;;11.05;66.24;99323.16;4488619;31;33711;-83
2024/03/03 03:40:09;;;;;;;0.20;0.20;;;;;;;10.93;66.75;99329.09;4458856;31;34850;-83
2024/03/03 03:42:37;;;;;;;;;;;;;;;10.96;66.65;99328.91;4479262;31;33813;-83
2024/03/03 03:45:06;;;;;;;1.15;1.10;;;;;;;11.05;66.84;99340.78;4481839;31;33938;-82
2024/03/03 03:47:33;;;;;;;0.93;0.93;;;;;;;11.16;66.22;99335.81;4480557;31;34264;-83
2024/03/03 03:50:02;;;;;;;0.22;0.22;;;;;;;11.19;66.40;99346.19;4480150;31;31832;-82
2024/03/03 03:52:30;;;;;;;1.02;1.00;;;;;;;11.10;66.23;99346.69;4477430;31;33171;-83
2024/03/03 03:54:57;;;;;;;0.62;0.62;;;;;;;11.31;65.68;99344.72;4480114;31;34756;-82
2024/03/03 03:57:25;;;;;;;1.08;1.08;;;;;;;11.06;66.73;99343.34;4477737;31;33443;-82
2024/03/03 03:59:53;;;;;;;0.80;0.80;;;;;;;11.25;65.94;99345.87;4493950;31;32125;-82
2024/03/03 04:02:20;;;;;;;8.60;2.17;;;;;;;11.35;64.96;99340.97;4479952;31;34014;-83
2024/03/03 04:04:48;;;;;;;1.20;1.10;;;;;;;11.44;64.92;99336.03;4476648;31;33271;-82
2024/03/03 04:07:16;;;;;;;0.60;0.60;;;;;;;11.09;65.92;99340.56;4480269;31;33705;-82
2024/03/03 04:09:43;;;;;;;0.70;0.68;;;;;;;11.24;65.64;99336.22;4477817;31;32117;-82
2024/03/03 04:12:11;;;;;;;1.55;1.45;;;;;;;11.34;65.60;99340.09;4481474;31;33086;-82
2024/03/03 04:14:40;;;;;;;1.95;1.85;;;;;;;11.32;65.61;99341.97;4490656;31;33882;-83
2024/03/03 04:17:07;;;;;;;2.65;2.50;;;;;;;11.43;65.53;99336.09;4479672;31;33164;-83
2024/03/03 04:19:38;;;;;;;1.70;1.60;;;;;;;11.31;66.05;99334.97;4463801;31;32054;-83
2024/03/03 04:22:05;;;;;;;2.95;1.55;;;;;;;11.22;66.41;99341.62;4476691;31;34353;-84
2024/03/03 04:24:33;;;;;;;0.80;0.75;;;;;;;11.37;65.32;99336.44;4478136;31;32066;-83
2024/03/03 04:27:03;;;;;;;2.80;2.50;;;;;;;11.42;65.31;99339.69;4479045;31;31956;-83
2024/03/03 04:29:31;;;;;;;0.50;0.50;;;;;;;11.66;64.47;99340.13;4475974;31;31950;-83
2024/03/03 04:31:58;;;;;;;0.62;0.62;;;;;;;11.82;63.38;99334.81;4479471;31;32252;-84
2024/03/03 04:34:28;;;;;;;4.80;1.75;;;;;;;11.64;64.03;99334.94;4490575;31;34018;-83
2024/03/03 04:36:55;;;;;;;1.20;1.17;;;;;;;11.68;64.39;99325.00;4491013;31;34796;-83
2024/03/03 04:39:23;;;;;;;2.37;1.52;;;;;;;11.82;63.86;99330.44;4491213;31;33323;-84
2024/03/03 04:41:51;;;;;;;3.37;1.75;;;;;;;11.86;63.70;99337.25;4479892;31;33824;-83
2024/03/03 04:44:18;;;;;;;0.68;0.68;;;;;;;11.64;64.51;99337.56;4491332;31;33713;-84
2024/03/03 04:46:46;;;;;;;1.42;1.35;;;;;;;11.46;65.18;99344.72;4478223;31;33399;-84
2024/03/03 04:49:14;;;;;;;1.05;1.02;;;;;;;11.35;65.19;99336.53;4490278;31;33057;-84
2024/03/03 04:51:42;;;;;;;2.40;1.30;;;;;;;11.35;65.67;99341.81;4489615;31;34098;-83
2024/03/03 04:54:09;;;;;;;1.65;1.50;;;;;;;11.36;65.63;99340.03;4491858;31;33430;-83
2024/03/03 04:56:38;;;;;;;2.20;1.05;;;;;;;11.53;65.10;99340.78;4464364;31;32808;-83
2024/03/03 04:59:06;;;;;;;1.00;0.90;;;;;;;11.62;65.04;99343.88;4477307;31;32361;-84
2024/03/03 05:01:33;;;;;;;2.80;0.75;;;;;;;11.28;66.15;99343.91;4479172;31;33190;-83
2024/03/03 05:04:01;;;;;;;2.50;1.50;;;;;;;11.76;64.38;99336.03;4476976;31;35053;-84
2024/03/03 05:06:29;;;;;;;0.80;0.68;;;;;;;11.30;66.21;99346.50;4477645;31;32574;-84
2024/03/03 05:08:57;;;;;;;1.30;1.20;;;;;;;11.53;64.83;99338.13;4491741;31;33132;-84
2024/03/03 05:11:24;;;;;;;7.87;1.25;;;;;;;11.65;64.67;99338.41;4479338;31;33441;-84
2024/03/03 05:13:52;;;;;;;1.33;1.30;;;;;;;11.32;66.12;99339.31;4464148;31;32981;-84
2024/03/03 05:16:20;;;;;;;1.50;1.48;;;;;;;11.33;66.02;99337.53;4465174;31;33665;-84
2024/03/03 05:18:48;;;;;;;4.05;1.62;;;;;;;11.26;65.85;99334.38;4477351;31;33580;-84
2024/03/03 05:21:16;;;;;;;3.87;3.22;;;;;;;11.61;65.06;99326.31;4477440;31;33897;-84
2024/03/03 05:23:43;;;;;;;1.20;1.17;;;;;;;11.23;66.09;99334.53;4489779;31;33888;-84
2024/03/03 05:26:17;;;;;;;2.00;1.87;;;;;;;11.44;65.76;99329.84;4479292;31;33219;-83
2024/03/03 05:28:49;;;;;;;4.57;0.85;;;;;;;11.33;65.81;99327.81;4492102;31;33208;-83
2024/03/03 05:31:17;;;;;;;1.17;1.17;;;;;;;11.44;64.86;99330.75;4477134;31;33716;-82
2024/03/03 05:33:45;;;;;;;1.50;1.30;;;;;;;11.29;65.65;99329.75;4479075;31;34562;-82
2024/03/03 05:36:13;;;;;;;2.87;2.15;;;;;;;11.27;66.19;99336.09;4491502;31;33624;-82
2024/03/03 05:38:42;;;;;;;0.68;0.65;;;;;;;11.06;66.73;99340.69;4489875;31;34128;-83
2024/03/03 05:41:09;;;;;;;1.80;1.70;;;;;;;10.98;67.01;99351.69;4482146;31;33783;-82
2024/03/03 05:43:37;;;;;;;1.52;1.05;;;;;;;11.09;66.59;99347.63;4478454;31;33088;-83
2024/03/03 05:46:05;;;;;;;2.37;1.27;;;;;;;11.22;66.33;99348.69;4478182;31;34401;-82
2024/03/03 05:48:33;;;;;;;1.50;0.93;;;;;;;11.16;66.43;99351.66;4491870;31;33542;-82
2024/03/03 05:51:00;;;;;;;1.12;0.85;;;;;;;11.19;66.54;99354.13;4477864;31;33952;-83
2024/03/03 05:53:29;;;;;;;1.20;0.77;;;;;;;11.45;65.41;99350.94;4476166;31;33574;-82
2024/03/03 05:55:56;;;;;;;0.60;0.50;;;;;;;11.42;65.33;99356.38;4492366;31;32588;-83
2024/03/03 05:58:24;;;;;;;3.55;2.15;;;;;;;11.69;64.22;99355.84;4492663;31;33312;-83
2024/03/03 06:00:52;;;;;;;2.33;1.02;;;;;;;11.66;63.49;99359.47;4487343;31;34743;-83
2024/03/03 06:03:20;;;;;;;1.67;1.58;;;;;;;11.41;64.78;99359.97;4477969;31;35683;-83
2024/03/03 06:05:47;;;;;;;0.85;0.85;;;;;;;11.63;63.91;99353.50;4479098;31;33690;-82
2024/03/03 06:08:16;;;;;;;0.60;0.60;;;;;;;11.41;64.80;99357.34;4491369;31;33747;-82
2024/03/03 06:10:44;;;;;;;0.50;0.50;;;;;;;11.38;64.58;99361.94;4478260;31;32206;-82
2024/03/03 06:13:12;;;;;;;0.43;0.43;;;;;;;11.33;64.92;99362.16;4490266;31;34068;-83
2024/03/03 06:15:39;;;;;;;0.65;0.62;;;;;;;11.47;64.06;99358.78;4475829;31;33837;-83
2024/03/03 06:18:07;;;;;;;1.60;0.93;;;;;;;11.21;65.15;99366.34;4479311;31;34004;-82
2024/03/03 06:20:36;;;;;;;1.27;1.20;;;;;;;11.45;64.08;99358.88;4478709;31;34223;-82
2024/03/03 06:23:04;;;;;;;1.40;1.33;;;;;;;11.45;63.96;99355.38;4477972;31;32679;-83
2024/03/03 06:25:32;;;;;;;0.55;0.50;;;;;;;11.39;64.87;99359.19;4476494;31;32319;-83
2024/03/03 06:27:59;;;;;;;1.35;1.25;;;;;;;11.45;64.85;99364.16;4490285;31;33364;-83
2024/03/03 06:30:28;;;;;;;1.60;1.17;;;;;;;11.63;64.33;99356.16;4475154;31;34219;-83
2024/03/03 06:32:56;;;;;;;1.75;1.58;;;;;;;11.47;65.01;99359.63;4477453;31;33252;-83
2024/03/03 06:35:23;;;;;;;2.55;2.22;;;;;;;11.53;65.37;99366.38;4475767;31;32399;-83
2024/03/03 06:37:51;;;;;;;0.73;0.73;;;;;;;11.93;63.74;99364.22;4477726;31;34024;-83
2024/03/03 06:40:19;;;;;;;1.15;1.05;;;;;;;11.24;66.31;99360.87;4492087;31;33811;-83
2024/03/03 06:42:47;;;;;;;0.75;0.75;;;;;;;11.29;66.09;99369.41;4478837;31;34540;-82
2024/03/03 06:45:15;;;;;;;0.82;0.82;;;;;;;11.42;65.87;99364.31;4476443;31;33223;-82
2024/03/03 06:47:43;;;;;;;0.80;0.80;;;;;;;11.38;65.76;99370.69;4490542;31;33099;-83
2024/03/03 06:50:10;;;;;;;1.40;1.30;;;;;;;11.16;66.60;99368.37;4464605;31;32766;-83
2024/03/03 06:52:38;;;;;;;1.10;1.10;;;;;;;11.41;65.71;99362.63;4480209;31;34095;-83
2024/03/03 06:55:06;;;;;;;1.48;1.20;;;;;;;11.03;66.19;99380.50;4479659;31;33216;-83
2024/03/03 06:57:33;;;;;;;1.55;1.48;;;;;;;11.12;66.57;99381.81;4478914;31;33320;-83
2024/03/03 07:00:01;;;;;;;2.22;1.48;;;;;;;11.28;66.14;99378.28;4480005;31;34209;-83
2024/03/03 07:02:57;;;;;;;4.68;1.83;;;;;;;11.38;65.92;99383.91;4478171;31;33529;-83
2024/03/03 07:05:17;;;;;;;1.25;0.88;;;;;;;11.44;65.44;99377.44;4480019;31;33388;-83
2024/03/03 07:07:45;;;;;;;0.90;0.90;;;;;;;11.53;65.21;99374.31;4493550;31;33729;-83
2024/03/03 07:10:13;;;;;;;5.65;1.37;;;;;;;11.61;64.80;99384.47;4464620;31;32882;-83
2024/03/03 07:12:40;;;;;;;0.90;0.82;;;;;;;11.78;64.47;99387.06;4477158;31;32946;-83
2024/03/03 07:15:09;;;;;;;1.00;1.00;;;;;;;11.60;64.77;99377.50;4464251;31;32353;-83
2024/03/03 07:17:36;;;;;;;2.30;1.73;;;;;;;11.38;65.61;99386.56;4490173;31;32576;-83
2024/03/03 07:20:05;;;;;;;1.17;1.08;;;;;;;11.73;64.53;99391.75;4490168;31;34532;-83
2024/03/03 07:22:34;;;;;;;1.20;1.12;;;;;;;11.45;65.14;99387.09;4467032;31;33537;-84
2024/03/03 07:25:03;;;;;;;1.45;1.35;;;;;;;11.43;65.32;99395.09;4490663;31;31733;-84
2024/03/03 07:27:31;;;;;;;1.05;1.00;;;;;;;11.48;65.39;99400.16;4463504;31;32380;-85
2024/03/03 07:30:00;;;;;;;1.40;0.77;;;;;;;11.66;64.85;99396.50;4474158;31;31587;-84
2024/03/03 07:32:28;;;;;;;8.02;2.80;;;;;;;11.41;64.91;99394.34;4477044;31;32616;-84
2024/03/03 07:34:56;;;;;;;1.67;1.02;;;;;;;11.28;65.53;99395.94;4476618;31;34488;-84
2024/03/03 07:37:25;;;;;;;1.12;1.00;;;;;;;11.80;64.20;99401.03;4475075;31;33555;-83
2024/03/03 07:39:54;;;;;;;2.58;1.75;;;;;;;11.81;63.66;99397.44;4478319;31;33828;-83
2024/03/03 07:42:22;;;;;;;0.47;0.45;;;;;;;11.44;65.08;99398.59;4476790;31;33886;-83
2024/03/03 07:44:50;;;;;;;3.35;1.95;;;;;;;11.46;64.87;99394.94;4487898;31;33471;-84
2024/03/03 07:47:18;;;;;;;0.68;0.52;;;;;;;11.61;64.29;99389.78;4489365;31;33640;-83
2024/03/03 07:49:45;;;;;;;0.98;0.98;;;;;;;11.45;64.93;99387.09;4477247;31;32766;-83
2024/03/03 07:52:13;;;;;;;1.50;1.40;;;;;;;11.77;64.24;99382.69;4466965;31;33087;-83
2024/03/03 07:54:41;;;;;;;1.25;1.17;;;;;;;11.67;64.84;99384.13;4477901;31;32799;-83
2024/03/03 07:57:09;;;;;;;0.93;0.93;;;;;;;11.62;64.71;99368.53;4479633;31;34147;-83
2024/03/03 07:59:37;;;;;;;2.35;1.17;;;;;;;11.78;64.80;99373.84;4489878;31;35619;-83
2024/03/03 08:02:05;;;;;;;1.23;1.08;;;;;;;11.76;64.81;99373.06;4467314;31;32912;-84
2024/03/03 08:04:33;;;;;;;1.85;1.17;;;;;;;11.83;64.35;99374.47;4489061;31;35430;-83
2024/03/03 08:07:01;;;;;;;1.05;1.05;;;;;;;11.59;65.48;99375.78;4488823;31;33429;-85
2024/03/03 08:09:28;;;;;;;2.62;2.40;;;;;;;11.84;64.81;99376.16;4487504;31;32950;-84
2024/03/03 08:11:56;;;;;;;1.55;0.98;;;;;;;11.73;64.81;99373.25;4473975;31;32942;-83
2024/03/03 08:14:24;;;;;;;4.00;2.15;;;;;;;12.12;63.77;99379.91;4476525;31;32958;-83
2024/03/03 08:16:51;;;;;;;1.65;1.55;;;;;;;12.19;63.82;99375.97;4479014;31;34013;-83
2024/03/03 08:19:19;;;;;;;4.87;2.78;;;;;;;11.50;65.94;99378.00;4477661;31;33347;-83
2024/03/03 08:21:47;;;;;;;0.93;0.93;;;;;;;11.94;64.34;99381.78;4488002;31;33913;-83
2024/03/03 08:24:15;;;;;;;2.75;2.55;;;;;;;11.77;64.93;99380.03;4476105;31;32497;-83
2024/03/03 08:26:47;;;;;;;0.88;0.88;;;;;;;12.04;64.62;99383.84;4465483;31;31982;-83
2024/03/03 08:29:15;;;;;;;3.42;1.50;;;;;;;11.95;64.65;99384.34;4477497;31;31912;-83
2024/03/03 08:31:44;;;;;;;2.47;1.33;;;;;;;11.89;64.76;99389.13;4473886;31;34758;-83
2024/03/03 08:34:12;;;;;;;1.62;1.52;;;;;;;11.76;64.49;99384.47;4476720;31;33375;-83
2024/03/03 08:36:41;;;;;;;1.48;1.37;;;;;;;11.22;66.47;99380.41;4463684;31;32470;-83
2024/03/03 08:39:11;;;;;;;1.98;1.83;;;;;;;11.13;67.07;99375.59;4474165;31;30671;-82
2024/03/03 08:41:40;;;;;;;2.45;1.70;;;;;;;11.49;65.99;99376.28;4490906;31;34698;-83
2024/03/03 08:44:09;;;;;;;4.57;1.75;;;;;;;11.43;66.26;99370.47;4487255;31;33109;-83
2024/03/03 08:46:38;;;;;;;0.88;0.88;;;;;;;11.29;66.76;99373.84;4474958;31;32366;-83
2024/03/03 08:49:05;;;;;;;2.45;1.95;;;;;;;11.42;66.26;99377.53;4488763;31;33767;-83
2024/03/03 08:51:38;;;;;;;3.78;1.27;;;;;;;11.60;65.28;99377.50;4488003;31;33527;-83
2024/03/03 08:54:06;;;;;;;2.35;2.12;;;;;;;11.75;64.79;99379.28;4468365;31;33384;-83
2024/03/03 08:56:33;;;;;;;1.58;1.52;;;;;;;11.71;65.36;99375.09;4458618;31;32770;-84
2024/03/03 08:59:01;;;;;;;4.70;1.90;;;;;;;11.98;64.54;99373.59;4476755;31;33168;-83
2024/03/03 09:01:29;;;;;;;0.90;0.90;;;;;;;12.04;64.46;99375.91;4490628;31;34668;-83
2024/03/03 09:03:58;;;;;;;2.92;1.67;;;;;;;12.17;63.98;99368.13;4490583;31;33636;-83
2024/03/03 09:06:26;;;;;;;1.10;1.10;;;;;;;12.21;64.36;99363.50;4475336;31;33697;-83
2024/03/03 09:08:54;;;;;;;0.77;0.77;;;;;;;12.24;64.28;99361.53;4476653;31;32479;-83
2024/03/03 09:11:22;;;;;;;2.75;2.25;;;;;;;12.31;63.65;99375.28;4491577;31;33208;-83
2024/03/03 09:13:50;;;;;;;1.55;1.45;;;;;;;11.90;64.54;99374.97;4474116;31;33905;-83
2024/03/03 09:16:17;;;;;;;1.50;0.68;;;;;;;11.97;65.11;99374.56;4474452;31;33576;-84
2024/03/03 09:18:49;;;;;;;0.60;0.60;;;;;;;12.50;64.20;99364.47;4465397;31;32963;-83
2024/03/03 09:21:17;;;;;;;3.35;2.28;;;;;;;12.37;64.75;99361.69;4476749;31;33550;-83
2024/03/03 09:23:46;;;;;;;2.50;2.30;;;;;;;12.51;64.34;99353.78;4476061;31;34113;-84
2024/03/03 09:26:14;;;;;;;3.28;3.00;;;;;;;13.08;62.10;99345.94;4486319;31;33569;-84
2024/03/03 09:28:42;;;;;;;2.42;2.17;;;;;;;13.07;61.99;99336.28;4489114;31;34556;-84
2024/03/03 09:31:10;;;;;;;3.28;2.17;;;;;;;12.96;63.16;99333.44;4475963;31;32344;-83
2024/03/03 09:33:38;;;;;;;1.08;1.08;;;;;;;13.20;61.69;99332.88;4463848;31;34307;-83
2024/03/03 09:36:07;;;;;;;1.50;1.45;;;;;;;13.33;61.22;99340.00;4471876;31;32677;-83
2024/03/03 09:38:34;;;;;;;3.40;1.42;;;;;;;13.64;60.36;99337.22;4477412;31;32874;-83
2024/03/03 09:41:03;;;;;;;3.47;2.62;;;;;;;13.86;59.61;99342.84;4471883;31;33922;-83
2024/03/03 09:43:38;;;;;;;4.30;1.52;;;;;;;13.94;59.51;99345.87;4486829;31;33916;-84
2024/03/03 09:46:06;;;;;;;1.30;1.30;;;;;;;14.09;59.03;99344.00;4485151;31;34014;-84
2024/03/03 09:48:39;;;;;;;1.77;1.20;;;;;;;13.80;60.69;99349.41;4490522;31;34509;-84
2024/03/03 09:51:07;;;;;;;10.10;2.28;;;;;;;14.41;57.29;99339.22;4488822;31;33319;-84
2024/03/03 09:53:37;;;;;;;1.30;0.93;;;;;;;14.45;57.30;99335.44;4489841;31;31540;-84
2024/03/03 09:56:10;;;;;;;2.80;2.30;;;;;;;13.92;58.35;99331.00;4477008;31;32475;-83
2024/03/03 09:58:37;;;;;;;0.80;0.80;;;;;;;13.85;59.12;99333.19;4486061;31;33490;-84
2024/03/03 10:01:06;;;;;;;5.07;2.05;;;;;;;14.06;59.82;99345.06;4486848;31;33657;-84
2024/03/03 10:03:36;;;;;;;2.97;2.78;;;;;;;14.40;57.42;99342.00;4480398;31;33652;-84
2024/03/03 10:06:06;;;;;;;3.20;2.62;;;;;;;14.83;56.12;99342.62;4463317;31;32281;-84
2024/03/03 10:08:33;;;;;;;1.55;1.45;;;;;;;14.74;55.20;99340.59;4475435;31;34473;-84
2024/03/03 10:11:03;;;;;;;1.58;1.15;;;;;;;14.98;57.03;99341.59;4477274;31;32787;-84
2024/03/03 10:13:32;;;;;;;2.15;1.95;;;;;;;15.21;57.08;99342.66;4476566;31;34110;-84
2024/03/03 10:16:00;;;;;;;3.97;1.77;;;;;;;14.76;56.15;99338.69;4486942;31;31848;-83
2024/03/03 10:18:28;;;;;;;2.22;2.03;;;;;;;15.19;55.06;99333.94;4476732;31;33809;-85
2024/03/03 10:20:57;;;;;;;2.92;2.40;;;;;;;14.96;56.86;99335.53;4476850;31;33636;-84
2024/03/03 10:23:28;;;;;;;5.57;1.80;;;;;;;15.41;54.84;99330.59;4487442;31;34243;-84
2024/03/03 10:25:57;;;;;;;2.33;2.13;;;;;;;15.61;53.59;99330.00;4474942;31;32501;-84
2024/03/03 10:28:25;;;;;;;2.67;1.65;;;;;;;15.56;55.25;99328.66;4472576;31;33206;-81
2024/03/03 10:31:13;;;;;;;1.35;1.17;;;;;;;15.65;54.83;99321.84;4477910;31;33010;-81
2024/03/03 10:34:02;;;;;;;3.20;2.20;;;;;;;16.23;53.21;99312.22;4475107;31;33363;-82
2024/03/03 10:36:32;;;;;;;0.90;0.80;;;;;;;16.09;53.21;99311.47;4489007;31;34263;-81
2024/03/03 10:39:00;;;;;;;2.60;2.40;;;;;;;16.05;52.48;99307.34;4490961;31;36893;-81
2024/03/03 10:41:29;;;;;;;1.95;1.85;;;;;;;16.15;51.87;99290.69;4475646;31;33175;-81
2024/03/03 10:43:57;;;;;;;0.45;0.45;;;;;;;16.28;53.53;99296.75;4477228;31;32698;-81
2024/03/03 10:46:25;;;;;;;1.35;1.25;;;;;;;16.22;52.69;99299.87;4471294;31;32968;-81
2024/03/03 10:48:55;;;;;;;2.10;1.98;;;;;;;16.37;52.11;99293.41;4474724;31;33371;-82
2024/03/03 10:51:24;;;;;;;1.90;1.42;;;;;;;16.61;51.01;99291.53;4475343;31;33999;-81
2024/03/03 10:53:53;;;;;;;1.55;1.45;;;;;;;17.04;49.97;99269.59;4490357;31;33269;-81
2024/03/03 10:56:22;;;;;;;2.28;1.92;;;;;;;16.87;51.56;99276.22;4474068;31;31890;-82
2024/03/03 10:58:50;;;;;;;2.17;0.73;;;;;;;16.95;50.86;99267.63;4474925;31;33383;-81
2024/03/03 11:01:18;;;;;;;1.90;1.77;;;;;;;16.86;50.71;99268.34;4489939;31;33933;-81
2024/03/03 11:03:48;;;;;;;5.68;2.22;;;;;;;16.88;50.84;99261.06;4473489;31;34668;-81
2024/03/03 11:06:16;;;;;;;6.45;1.25;;;;;;;16.89;50.68;99254.75;4461889;31;32777;-81
2024/03/03 11:08:51;;;;;;;1.42;1.33;;;;;;;17.09;50.29;99258.53;4475914;31;33543;-81
2024/03/03 11:11:24;;;;;;;3.33;2.53;;;;;;;17.26;50.46;99254.53;4486447;31;34346;-81
2024/03/03 11:14:04;;;;;;;2.50;1.85;;;;;;;17.24;50.31;99245.81;4490209;31;32310;-81
2024/03/03 11:16:32;;;;;;;0.80;0.80;;;;;;;17.41;49.57;99242.62;4486055;31;33115;-81
2024/03/03 11:19:09;;;;;;;3.75;0.77;;;;;;;16.86;50.87;99244.38;4476384;31;32504;-81
2024/03/03 11:21:37;;;;;;;1.65;1.55;;;;;;;16.69;51.98;99242.97;4486006;31;33873;-81
2024/03/03 11:24:07;;;;;;;4.45;1.58;;;;;;;17.37;49.59;99235.81;4485700;31;35046;-81
2024/03/03 11:26:46;;;;;;;3.78;2.20;;;;;;;17.06;50.92;99232.13;4488907;31;33311;-81
2024/03/03 11:29:19;;;;;;;2.33;1.58;;;;;;;17.34;50.30;99218.25;4474421;31;33508;-81
2024/03/03 11:31:47;;;;;;;1.58;1.48;;;;;;;17.26;49.99;99228.69;4487267;31;33385;-81
2024/03/03 11:34:15;;;;;;;2.30;2.03;;;;;;;16.82;52.11;99218.91;4476961;31;32576;-82
2024/03/03 11:36:43;;;;;;;1.37;1.00;;;;;;;17.28;49.95;99207.22;4476622;31;32272;-81
2024/03/03 11:39:15;;;;;;;12.37;2.85;;;;;;;17.34;50.37;99209.41;4482539;31;32826;-82